Time;durP1;ratioP1;P1;durP2;ratioP2;P2;SDS_P1;SDS_P2;PMS_P1;PMS_P2;Temp;Humidity;BMP_temperature;BMP_pressure;BME280_temperature;BME280_humidity;BME280_pressure;Samples;Min_cycle;Max_cycle;Signal;HPM_P1;HPM_P2
2021/12/09 00:01:23;;;;;;;2.45;0.88;;;1.60;99.90;;;;;;4970523;28;20027;-86
2021/12/09 00:03:55;;;;;;;5.28;1.13;;;1.50;99.90;;;;;;4986750;28;20042;-86
2021/12/09 00:06:26;;;;;;;3.75;0.70;;;1.50;99.90;;;;;;4986642;28;20027;-85
2021/12/09 00:08:53;;;;;;;1.98;0.70;;;1.50;99.90;;;;;;4970216;28;20034;-86
2021/12/09 00:11:19;;;;;;;3.88;0.88;;;1.50;99.90;;;;;;4970386;28;20074;-86
2021/12/09 00:13:45;;;;;;;3.95;0.73;;;1.50;99.90;;;;;;4970267;28;20035;-86
2021/12/09 00:16:11;;;;;;;3.60;0.80;;;1.50;99.90;;;;;;4970124;28;20042;-85
2021/12/09 00:18:36;;;;;;;4.20;0.90;;;1.60;99.90;;;;;;4970390;28;20037;-85
2021/12/09 00:21:02;;;;;;;4.25;0.90;;;1.60;99.90;;;;;;4970180;28;20081;-85
2021/12/09 00:23:28;;;;;;;1.48;0.60;;;1.50;99.90;;;;;;4969882;28;20057;-85
2021/12/09 00:25:54;;;;;;;2.33;0.80;;;1.50;99.90;;;;;;4970165;28;20058;-85
2021/12/09 00:31:36;;;;;;;4.78;0.90;;;1.50;99.90;;;;;;4928542;29;20055;-85
2021/12/09 00:34:02;;;;;;;2.63;0.50;;;1.40;99.90;;;;;;4928868;29;20047;-85
2021/12/09 00:36:37;;;;;;;3.75;1.30;;;1.40;99.90;;;;;;4928862;29;20028;-85
2021/12/09 00:39:04;;;;;;;4.65;0.77;;;1.40;99.90;;;;;;4943984;29;20036;-85
2021/12/09 00:41:30;;;;;;;3.17;0.70;;;1.40;99.90;;;;;;4943870;29;20043;-85
2021/12/09 00:43:59;;;;;;;4.28;0.77;;;1.40;99.90;;;;;;4913273;29;20036;-85
2021/12/09 00:46:24;;;;;;;2.72;0.80;;;1.40;99.90;;;;;;4913084;29;20099;-85
2021/12/09 00:48:50;;;;;;;4.28;1.13;;;1.40;99.90;;;;;;4912884;29;20040;-85
2021/12/09 00:51:16;;;;;;;5.85;0.95;;;1.50;99.90;;;;;;4928691;29;20056;-84
2021/12/09 00:53:42;;;;;;;3.75;0.88;;;1.40;99.90;;;;;;4912852;29;20087;-85
2021/12/09 00:56:10;;;;;;;3.22;0.90;;;1.40;99.90;;;;;;4912917;29;20147;-84
2021/12/09 00:58:37;;;;;;;4.32;0.80;;;1.40;99.90;;;;;;4912395;29;20126;-85
2021/12/09 01:01:04;;;;;;;3.55;0.90;;;1.40;99.90;;;;;;4912569;29;20033;-85
2021/12/09 01:03:30;;;;;;;2.10;0.70;;;1.50;99.90;;;;;;4928530;29;20040;-84
2021/12/09 01:05:56;;;;;;;3.55;1.00;;;1.40;99.90;;;;;;4928700;29;20043;-85
2021/12/09 01:08:21;;;;;;;3.30;0.80;;;1.50;99.90;;;;;;4928317;29;20028;-85
2021/12/09 01:10:47;;;;;;;4.07;1.10;;;1.40;99.90;;;;;;4928110;29;20036;-85
2021/12/09 01:13:13;;;;;;;2.83;1.00;;;1.30;99.90;;;;;;4928328;29;20051;-85
2021/12/09 01:15:39;;;;;;;2.33;0.95;;;1.30;99.90;;;;;;4928076;29;20036;-85
2021/12/09 01:18:05;;;;;;;3.67;1.05;;;1.20;99.90;;;;;;4943834;29;20051;-85
2021/12/09 01:20:31;;;;;;;3.50;0.80;;;1.30;99.90;;;;;;4928126;29;20032;-85
2021/12/09 01:22:58;;;;;;;5.10;0.80;;;1.30;99.90;;;;;;4944043;29;20044;-84
2021/12/09 01:25:26;;;;;;;3.30;0.75;;;1.30;99.90;;;;;;4946882;29;20088;-85
2021/12/09 01:27:55;;;;;;;4.45;1.10;;;1.30;99.90;;;;;;4931708;29;20043;-85
2021/12/09 01:30:23;;;;;;;4.73;1.13;;;1.20;99.90;;;;;;4946696;29;20059;-84
2021/12/09 01:32:53;;;;;;;2.65;0.80;;;1.20;99.90;;;;;;4954206;29;20289;-85
2021/12/09 01:35:33;;;;;;;3.90;1.00;;;1.20;99.90;;;;;;4954017;29;20038;-85
2021/12/09 01:38:06;;;;;;;5.00;1.20;;;1.20;99.90;;;;;;4953760;29;20054;-85
2021/12/09 01:40:32;;;;;;;3.33;0.80;;;1.20;99.90;;;;;;4954010;29;20043;-85
2021/12/09 01:42:58;;;;;;;5.30;0.90;;;1.10;99.90;;;;;;4953812;29;20039;-85
2021/12/09 01:45:26;;;;;;;2.67;0.80;;;1.10;99.90;;;;;;4953847;29;20028;-86
2021/12/09 01:47:52;;;;;;;2.33;0.80;;;1.10;99.90;;;;;;4953648;29;20035;-85
2021/12/09 01:50:18;;;;;;;2.85;0.80;;;1.10;99.90;;;;;;4953747;29;20032;-86
2021/12/09 01:52:44;;;;;;;6.03;0.98;;;1.00;99.90;;;;;;4953692;29;20122;-86
2021/12/09 01:55:12;;;;;;;2.75;0.90;;;1.00;99.90;;;;;;4969520;29;20099;-86
2021/12/09 01:57:38;;;;;;;2.53;0.95;;;1.00;99.90;;;;;;4969425;29;20054;-86
2021/12/09 02:00:11;;;;;;;2.88;1.58;;;1.00;99.90;;;;;;4969559;29;20031;-86
2021/12/09 02:02:38;;;;;;;3.75;0.90;;;1.00;99.90;;;;;;4969665;29;20108;-86
2021/12/09 02:05:05;;;;;;;3.15;0.70;;;1.00;99.90;;;;;;4937612;29;20027;-86
2021/12/09 02:07:30;;;;;;;5.43;1.10;;;1.00;99.90;;;;;;4953352;29;20040;-86
2021/12/09 02:09:56;;;;;;;5.97;0.95;;;1.00;99.90;;;;;;4969648;29;20130;-86
2021/12/09 02:12:22;;;;;;;4.50;1.20;;;1.00;99.90;;;;;;4969230;29;20036;-86
2021/12/09 02:14:48;;;;;;;5.57;1.70;;;1.00;99.90;;;;;;4969240;29;20038;-85
2021/12/09 02:17:14;;;;;;;5.10;1.25;;;1.00;99.90;;;;;;4969071;29;20140;-85
2021/12/09 02:19:42;;;;;;;6.05;1.35;;;1.10;99.90;;;;;;4953391;29;20031;-85
2021/12/09 02:22:13;;;;;;;5.68;1.00;;;1.00;99.90;;;;;;4969310;29;20148;-85
2021/12/09 02:24:39;;;;;;;12.35;2.33;;;1.00;99.90;;;;;;4953212;29;20039;-85
2021/12/09 02:27:05;;;;;;;5.78;1.80;;;1.20;99.90;;;;;;4968878;29;20411;-85
2021/12/09 02:29:30;;;;;;;5.45;1.60;;;1.10;99.90;;;;;;4978626;23;20052;-84
2021/12/09 02:31:58;;;;;;;4.80;1.50;;;1.00;99.90;;;;;;4969447;29;20031;-85
2021/12/09 02:34:23;;;;;;;4.82;1.02;;;1.00;99.90;;;;;;4969165;29;20027;-86
2021/12/09 02:36:51;;;;;;;6.43;1.23;;;1.00;99.90;;;;;;4969157;28;20531;-85
2021/12/09 02:39:17;;;;;;;6.45;1.23;;;0.90;99.90;;;;;;4969303;29;20035;-85
2021/12/09 02:41:46;;;;;;;6.45;1.00;;;1.00;99.90;;;;;;4969151;29;20038;-85
2021/12/09 02:44:14;;;;;;;3.67;0.90;;;1.00;99.90;;;;;;4953192;29;20058;-85
2021/12/09 02:46:40;;;;;;;6.93;1.10;;;0.90;99.90;;;;;;4968852;29;20046;-85
2021/12/09 02:49:09;;;;;;;5.80;1.10;;;1.00;99.90;;;;;;4969164;29;20487;-85
2021/12/09 02:51:36;;;;;;;5.30;0.93;;;1.00;99.90;;;;;;4969103;29;20035;-84
2021/12/09 02:54:05;;;;;;;5.30;1.20;;;1.00;99.90;;;;;;4969031;29;20036;-85
2021/12/09 02:56:31;;;;;;;6.13;1.10;;;1.00;99.90;;;;;;4952493;29;20035;-85
2021/12/09 02:58:56;;;;;;;4.05;1.15;;;1.00;99.90;;;;;;4952790;29;20042;-84
2021/12/09 03:01:26;;;;;;;7.82;1.80;;;1.00;99.90;;;;;;4968750;29;20027;-84
2021/12/09 03:03:59;;;;;;;5.35;1.58;;;1.00;99.90;;;;;;4968851;29;20038;-85
2021/12/09 03:06:35;;;;;;;6.93;1.83;;;1.00;99.90;;;;;;4968138;29;20078;-85
2021/12/09 03:09:14;;;;;;;7.22;1.92;;;1.00;99.90;;;;;;4952571;29;20031;-85
2021/12/09 03:11:42;;;;;;;7.53;1.60;;;0.90;99.90;;;;;;4952306;29;20035;-85
2021/12/09 03:14:09;;;;;;;5.03;1.10;;;1.00;99.90;;;;;;4968405;29;20496;-84
2021/12/09 03:16:35;;;;;;;6.60;1.63;;;0.90;99.90;;;;;;4952056;29;20098;-85
2021/12/09 03:19:06;;;;;;;5.35;1.38;;;0.90;99.90;;;;;;4968440;29;20031;-85
2021/12/09 03:21:41;;;;;;;7.25;2.72;;;0.90;99.90;;;;;;4968041;29;20054;-84
2021/12/09 03:24:10;;;;;;;8.02;1.42;;;0.90;99.90;;;;;;4968293;29;20122;-84
2021/12/09 03:26:46;;;;;;;3.47;1.23;;;0.80;99.90;;;;;;4952113;29;20027;-85
2021/12/09 03:29:14;;;;;;;4.40;0.98;;;0.90;99.90;;;;;;4970661;28;20507;-85
2021/12/09 03:31:44;;;;;;;4.07;1.27;;;0.80;99.90;;;;;;4971086;28;20038;-85
2021/12/09 03:34:11;;;;;;;4.05;1.08;;;0.70;99.90;;;;;;4955054;28;20041;-84
2021/12/09 03:36:38;;;;;;;3.47;1.35;;;0.70;99.90;;;;;;4970619;28;20070;-84
2021/12/09 03:39:08;;;;;;;8.13;1.50;;;0.60;99.90;;;;;;4971155;28;20027;-85
2021/12/09 03:41:34;;;;;;;4.95;1.25;;;0.70;99.90;;;;;;4954963;28;20038;-85
2021/12/09 03:44:00;;;;;;;5.05;1.05;;;0.60;99.90;;;;;;4970696;28;20035;-85
2021/12/09 03:46:26;;;;;;;6.20;1.33;;;0.50;99.90;;;;;;4954460;28;20031;-85
2021/12/09 03:48:52;;;;;;;6.72;1.60;;;0.60;99.90;;;;;;4970739;28;20090;-85
2021/12/09 03:51:17;;;;;;;4.05;0.90;;;0.60;99.90;;;;;;4970704;28;20479;-84
2021/12/09 03:53:43;;;;;;;4.20;1.13;;;0.60;99.90;;;;;;4970914;28;20058;-85
2021/12/09 03:56:09;;;;;;;2.95;1.00;;;0.60;99.90;;;;;;4970668;28;20030;-85
2021/12/09 03:58:34;;;;;;;5.57;1.15;;;0.60;99.90;;;;;;4970220;28;20042;-85
2021/12/09 04:01:00;;;;;;;5.75;1.35;;;0.60;99.90;;;;;;4954639;28;20031;-85
2021/12/09 04:03:26;;;;;;;9.57;0.95;;;0.60;99.90;;;;;;4970639;28;20039;-84
2021/12/09 04:05:51;;;;;;;4.35;1.20;;;0.60;99.90;;;;;;4970565;28;20023;-84
2021/12/09 04:08:20;;;;;;;6.82;1.75;;;0.70;99.90;;;;;;4970479;28;20575;-84
2021/12/09 04:10:45;;;;;;;6.30;1.50;;;0.80;99.90;;;;;;4970459;28;20102;-85
2021/12/09 04:13:11;;;;;;;3.60;1.40;;;0.70;99.90;;;;;;4954219;28;20089;-85
2021/12/09 04:15:37;;;;;;;4.93;1.52;;;0.70;99.90;;;;;;4954698;28;20133;-84
2021/12/09 04:18:03;;;;;;;7.82;1.27;;;0.70;99.90;;;;;;4970068;28;20041;-84
2021/12/09 04:20:29;;;;;;;3.95;0.98;;;0.70;99.90;;;;;;4970325;28;20038;-84
2021/12/09 04:22:55;;;;;;;4.65;1.13;;;0.80;99.90;;;;;;4970251;28;20090;-85
2021/12/09 04:25:23;;;;;;;7.38;1.60;;;0.70;99.90;;;;;;4954209;28;20035;-85
2021/12/09 04:27:51;;;;;;;7.28;1.23;;;0.70;99.90;;;;;;4969978;28;20038;-84
2021/12/09 04:30:19;;;;;;;7.47;1.45;;;0.60;99.90;;;;;;4969890;28;20051;-84
2021/12/09 04:32:45;;;;;;;7.95;1.70;;;0.80;99.90;;;;;;4955953;28;20045;-84
2021/12/09 04:35:11;;;;;;;7.30;1.30;;;0.80;99.90;;;;;;4970223;28;20034;-84
2021/12/09 04:37:38;;;;;;;5.20;1.13;;;0.80;99.90;;;;;;4987024;28;20487;-85
2021/12/09 04:40:07;;;;;;;6.75;1.52;;;0.90;99.90;;;;;;4970127;28;20050;-85
2021/12/09 04:42:33;;;;;;;4.30;0.80;;;0.90;99.90;;;;;;4953770;28;20035;-84
2021/12/09 04:44:59;;;;;;;3.72;1.00;;;0.80;99.90;;;;;;4969873;28;20043;-84
2021/12/09 04:47:24;;;;;;;4.05;0.98;;;0.90;99.90;;;;;;4969693;28;20372;-84
2021/12/09 04:49:51;;;;;;;6.65;2.33;;;0.80;99.90;;;;;;4969870;28;20127;-84
2021/12/09 04:52:17;;;;;;;4.47;1.00;;;0.80;99.90;;;;;;4969760;28;20054;-84
2021/12/09 04:54:43;;;;;;;8.63;1.48;;;0.70;99.90;;;;;;4969994;28;20034;-84
2021/12/09 04:57:10;;;;;;;4.07;0.80;;;0.90;99.90;;;;;;4969677;28;20468;-84
2021/12/09 04:59:36;;;;;;;3.67;0.90;;;0.80;99.90;;;;;;4953125;28;20057;-84
2021/12/09 05:02:02;;;;;;;4.95;1.00;;;0.70;99.90;;;;;;4953601;28;20095;-85
2021/12/09 05:04:28;;;;;;;5.03;0.90;;;0.80;99.90;;;;;;4969858;28;20070;-85
2021/12/09 05:06:55;;;;;;;6.72;0.90;;;0.60;99.90;;;;;;4969695;28;20041;-85
2021/12/09 05:09:20;;;;;;;4.65;0.65;;;0.70;99.90;;;;;;4969889;28;20101;-85
2021/12/09 05:14:13;;;;;;;5.97;0.88;;;0.80;99.90;;;;;;4986751;28;20038;-85
2021/12/09 05:16:39;;;;;;;2.53;0.90;;;0.80;99.90;;;;;;4966871;28;20029;-85
2021/12/09 05:19:05;;;;;;;4.57;0.80;;;0.70;99.90;;;;;;4969656;28;20026;-84
2021/12/09 05:21:36;;;;;;;6.35;0.70;;;0.70;99.90;;;;;;4985709;28;20093;-85
2021/12/09 05:24:04;;;;;;;3.35;0.80;;;0.60;99.90;;;;;;4969675;28;20042;-86
2021/12/09 05:26:30;;;;;;;5.15;0.70;;;0.70;99.90;;;;;;4969381;28;20035;-85
2021/12/09 05:28:57;;;;;;;4.90;1.00;;;0.70;99.90;;;;;;4969000;28;20031;-88
2021/12/09 05:34:09;;;;;;;4.28;0.82;;;0.60;99.90;;;;;;4969464;28;20506;-88
2021/12/09 05:36:35;;;;;;;4.68;1.50;;;0.70;99.90;;;;;;4985282;28;20045;-87
2021/12/09 05:39:04;;;;;;;5.78;0.65;;;0.70;99.90;;;;;;4968871;28;20050;-85
2021/12/09 05:41:31;;;;;;;2.03;0.60;;;0.70;99.90;;;;;;4968965;28;20031;-86
2021/12/09 05:43:56;;;;;;;5.22;0.70;;;0.70;99.90;;;;;;4969304;28;20119;-86
2021/12/09 05:46:22;;;;;;;4.55;1.00;;;0.60;99.90;;;;;;4969332;28;20030;-85
2021/12/09 05:48:50;;;;;;;3.45;0.90;;;0.80;99.90;;;;;;4969160;28;20041;-88
2021/12/09 05:51:16;;;;;;;3.72;1.00;;;0.70;99.90;;;;;;4969247;28;20031;-86
2021/12/09 05:53:41;;;;;;;6.72;0.88;;;0.70;99.90;;;;;;4953115;28;20031;-85
2021/12/09 05:56:07;;;;;;;4.80;0.80;;;0.80;99.90;;;;;;4953367;28;20058;-86
2021/12/09 05:58:33;;;;;;;5.47;0.80;;;0.80;99.90;;;;;;4952656;28;20039;-86
2021/12/09 06:00:59;;;;;;;4.80;0.65;;;0.70;99.90;;;;;;4969129;28;20051;-85
2021/12/09 06:03:25;;;;;;;4.68;0.90;;;0.70;99.90;;;;;;4969440;28;20026;-86
2021/12/09 06:05:51;;;;;;;6.05;0.70;;;0.80;99.90;;;;;;4969069;28;20085;-88
2021/12/09 06:08:18;;;;;;;5.28;1.17;;;0.70;99.90;;;;;;4968929;28;20094;-85
2021/12/09 06:10:44;;;;;;;4.15;1.00;;;0.70;99.90;;;;;;4970830;28;20133;-86
2021/12/09 06:13:10;;;;;;;5.35;0.63;;;0.70;99.90;;;;;;4956815;28;20034;-85
2021/12/09 06:15:39;;;;;;;3.95;0.73;;;0.80;99.90;;;;;;4972418;28;20098;-85
2021/12/09 06:18:04;;;;;;;4.82;0.60;;;0.70;99.90;;;;;;4989774;28;20035;-89
2021/12/09 06:20:30;;;;;;;3.45;0.77;;;0.60;99.90;;;;;;4972652;28;20090;-85
2021/12/09 06:22:56;;;;;;;4.53;0.70;;;0.70;99.90;;;;;;4972291;28;20035;-86
2021/12/09 06:25:22;;;;;;;4.13;0.95;;;0.60;99.90;;;;;;4972576;28;20030;-86
2021/12/09 06:27:49;;;;;;;4.68;0.80;;;0.60;99.90;;;;;;4972291;28;20129;-88
2021/12/09 06:30:17;;;;;;;7.60;0.82;;;0.70;99.90;;;;;;4956199;28;20055;-91
2021/12/09 06:32:43;;;;;;;3.67;0.80;;;0.60;99.90;;;;;;4956253;28;20035;-87
2021/12/09 06:35:09;;;;;;;7.30;0.90;;;0.70;99.90;;;;;;4972781;28;20058;-89
2021/12/09 06:37:38;;;;;;;7.88;1.02;;;0.70;99.90;;;;;;4952712;29;20035;-89
2021/12/09 06:40:06;;;;;;;5.43;0.60;;;0.80;99.90;;;;;;4953142;29;20031;-90
2021/12/09 06:42:32;;;;;;;5.95;1.08;;;0.70;99.90;;;;;;4969072;29;20090;-86
2021/12/09 06:44:57;;;;;;;8.35;0.80;;;0.70;99.90;;;;;;4968961;29;20439;-89
2021/12/09 06:47:23;;;;;;;2.88;0.80;;;0.70;99.90;;;;;;4944045;28;20031;-89
2021/12/09 06:49:50;;;;;;;6.38;1.25;;;0.60;99.90;;;;;;4971746;28;20035;-88
2021/12/09 06:52:16;;;;;;;3.90;1.05;;;0.60;99.90;;;;;;4972102;28;20035;-88
2021/12/09 06:54:42;;;;;;;8.52;1.17;;;0.70;99.90;;;;;;4955971;28;20061;-85
2021/12/09 06:57:08;;;;;;;5.90;0.85;;;0.80;99.90;;;;;;4971694;28;20051;-85
2021/12/09 06:59:33;;;;;;;2.15;0.70;;;0.70;99.90;;;;;;4970914;28;20081;-84
2021/12/09 07:01:59;;;;;;;5.85;0.73;;;0.60;99.90;;;;;;4970545;28;20098;-84
2021/12/09 07:04:25;;;;;;;3.78;0.63;;;0.60;99.90;;;;;;4968070;28;20381;-84
2021/12/09 07:06:51;;;;;;;2.65;0.70;;;0.50;99.90;;;;;;4967954;29;20043;-85
2021/12/09 07:09:18;;;;;;;4.90;0.50;;;0.50;99.90;;;;;;4968476;29;20131;-88
2021/12/09 07:11:50;;;;;;;3.30;0.70;;;0.60;99.90;;;;;;4936618;29;20055;-90
2021/12/09 07:14:17;;;;;;;4.22;0.63;;;0.60;99.90;;;;;;4968538;29;20051;-87
2021/12/09 07:16:42;;;;;;;3.90;0.73;;;0.50;99.90;;;;;;4952031;29;20031;-85
2021/12/09 07:19:09;;;;;;;4.10;0.90;;;0.60;99.90;;;;;;4968535;29;20107;-89
2021/12/09 07:21:34;;;;;;;5.63;0.80;;;0.60;99.90;;;;;;4967493;28;20083;-87
2021/12/09 07:24:00;;;;;;;5.95;0.98;;;0.60;99.90;;;;;;4936299;29;20035;-84
2021/12/09 07:26:26;;;;;;;3.38;0.70;;;0.60;99.90;;;;;;4968095;29;20031;-83
2021/12/09 07:28:52;;;;;;;5.15;0.75;;;0.70;99.90;;;;;;4943559;28;20059;-83
2021/12/09 07:31:17;;;;;;;4.53;1.02;;;0.70;99.90;;;;;;4956411;28;20038;-91
2021/12/09 07:33:43;;;;;;;1.70;0.80;;;0.70;99.90;;;;;;4971309;28;20041;-83
2021/12/09 07:36:09;;;;;;;4.93;0.63;;;0.60;99.90;;;;;;4955401;28;20070;-83
2021/12/09 07:38:35;;;;;;;4.35;0.73;;;0.70;99.90;;;;;;4955330;28;20089;-82
2021/12/09 07:41:00;;;;;;;3.38;0.50;;;0.70;99.90;;;;;;4953677;28;20035;-84
2021/12/09 07:43:26;;;;;;;3.15;0.70;;;0.70;99.90;;;;;;4957537;28;20043;-83
2021/12/09 07:45:52;;;;;;;3.33;0.80;;;0.80;99.90;;;;;;4968956;28;20034;-82
2021/12/09 07:48:17;;;;;;;3.97;0.80;;;0.80;99.90;;;;;;4956712;28;20053;-83
2021/12/09 07:50:43;;;;;;;6.07;0.88;;;0.80;99.90;;;;;;4969295;28;20471;-83
2021/12/09 07:53:09;;;;;;;5.15;0.93;;;0.80;99.90;;;;;;4953763;28;20038;-84
2021/12/09 07:55:34;;;;;;;4.88;0.70;;;0.70;99.90;;;;;;4953150;28;20091;-84
2021/12/09 07:58:00;;;;;;;3.95;0.70;;;0.80;99.90;;;;;;4952525;28;20527;-82
2021/12/09 08:00:30;;;;;;;5.78;1.00;;;0.70;99.90;;;;;;4953020;28;20062;-83
2021/12/09 08:02:57;;;;;;;3.88;0.95;;;0.80;99.90;;;;;;4972566;28;20120;-83
2021/12/09 08:05:24;;;;;;;3.22;0.60;;;0.80;99.90;;;;;;4952715;28;20035;-83
2021/12/09 08:07:50;;;;;;;4.53;0.70;;;0.90;99.90;;;;;;4952749;28;20101;-84
2021/12/09 08:10:18;;;;;;;8.48;1.40;;;0.80;99.90;;;;;;4952194;28;20031;-83
2021/12/09 08:12:44;;;;;;;4.22;0.90;;;0.80;99.90;;;;;;4968716;28;20034;-85
2021/12/09 08:15:11;;;;;;;3.53;0.80;;;0.90;99.90;;;;;;4952284;28;20104;-84
2021/12/09 08:20:14;;;;;;;5.25;0.90;;;0.90;99.90;;;;;;4968073;28;20247;-83
2021/12/09 08:22:44;;;;;;;3.30;0.70;;;1.00;99.90;;;;;;4968669;28;20054;-83
2021/12/09 08:25:13;;;;;;;5.97;1.20;;;0.90;99.90;;;;;;4980947;28;20046;-81
2021/12/09 08:27:42;;;;;;;4.03;0.90;;;1.00;99.90;;;;;;4943179;28;20051;-85
2021/12/09 08:30:09;;;;;;;5.00;0.93;;;1.10;99.90;;;;;;4951473;28;20058;-83
2021/12/09 08:32:35;;;;;;;4.65;1.10;;;1.00;99.90;;;;;;4967209;28;20023;-83
2021/12/09 08:35:01;;;;;;;5.00;0.90;;;1.00;99.90;;;;;;4951199;28;20041;-83
2021/12/09 08:37:29;;;;;;;6.22;1.00;;;1.10;99.90;;;;;;4953057;28;20042;-83
2021/12/09 08:39:54;;;;;;;3.60;0.60;;;1.10;99.90;;;;;;4970728;28;20034;-82
2021/12/09 08:42:20;;;;;;;5.55;1.30;;;1.10;99.90;;;;;;4968006;28;20041;-84
2021/12/09 08:44:45;;;;;;;5.25;1.10;;;1.20;99.90;;;;;;4955511;28;20026;-82
2021/12/09 08:47:11;;;;;;;5.15;0.77;;;1.10;99.90;;;;;;4951141;28;20042;-81
2021/12/09 08:49:37;;;;;;;2.90;0.95;;;1.20;99.90;;;;;;4951256;28;20035;-82
2021/12/09 08:52:04;;;;;;;3.38;1.00;;;1.30;99.90;;;;;;4954855;28;20077;-82
2021/12/09 08:54:30;;;;;;;5.05;0.90;;;1.30;99.90;;;;;;4951044;28;20054;-82
2021/12/09 08:56:57;;;;;;;4.13;0.90;;;1.40;99.90;;;;;;4966604;28;20052;-81
2021/12/09 08:59:25;;;;;;;6.45;1.10;;;1.50;99.90;;;;;;4966737;28;20035;-81
2021/12/09 09:01:51;;;;;;;5.25;0.95;;;1.50;99.90;;;;;;4965346;28;20035;-82
2021/12/09 09:04:18;;;;;;;6.53;1.27;;;1.50;99.90;;;;;;4950870;28;20110;-82
2021/12/09 09:06:55;;;;;;;5.10;1.00;;;1.60;99.90;;;;;;4961881;28;20033;-82
2021/12/09 09:09:21;;;;;;;8.20;1.50;;;1.60;99.90;;;;;;4964534;28;20034;-81
2021/12/09 09:11:46;;;;;;;7.13;1.30;;;1.70;99.90;;;;;;4949574;28;20042;-85
2021/12/09 09:14:12;;;;;;;4.70;1.00;;;1.80;99.90;;;;;;4954921;28;20085;-82
2021/12/09 09:16:38;;;;;;;4.18;0.85;;;1.80;99.90;;;;;;4966706;28;20037;-82
2021/12/09 09:19:04;;;;;;;4.50;0.90;;;1.80;99.90;;;;;;4950681;28;20047;-81
2021/12/09 09:21:31;;;;;;;8.63;0.88;;;1.90;99.90;;;;;;4954303;28;20037;-82
2021/12/09 09:23:57;;;;;;;5.60;2.85;;;1.90;99.90;;;;;;4966874;28;20043;-82
2021/12/09 09:26:23;;;;;;;6.43;1.98;;;2.00;99.90;;;;;;4966562;28;20038;-82
2021/12/09 09:28:49;;;;;;;5.72;1.35;;;2.00;99.90;;;;;;4957579;28;20546;-83
2021/12/09 09:31:15;;;;;;;3.92;1.27;;;2.10;99.90;;;;;;4916212;28;1030896;-82
2021/12/09 09:33:41;;;;;;;4.28;1.55;;;2.10;99.90;;;;;;4951645;28;20049;-83
2021/12/09 09:36:07;;;;;;;8.75;2.40;;;2.20;99.90;;;;;;4951501;28;20053;-83
2021/12/09 09:38:33;;;;;;;8.43;2.05;;;2.20;99.90;;;;;;4968204;28;20499;-83
2021/12/09 09:41:17;;;;;;;6.32;3.05;;;2.30;99.90;;;;;;4955443;28;20026;-83
2021/12/09 09:44:11;;;;;;;10.50;2.95;;;2.30;99.90;;;;;;4966764;28;20499;-83
2021/12/09 09:46:38;;;;;;;6.38;3.67;;;2.30;99.90;;;;;;4985915;28;20057;-83
2021/12/09 09:49:06;;;;;;;9.52;4.15;;;2.40;99.90;;;;;;4914103;28;20758;-83
2021/12/09 09:51:33;;;;;;;9.20;3.35;;;2.40;99.90;;;;;;4954674;28;20387;-83
2021/12/09 09:53:59;;;;;;;7.28;3.45;;;2.50;99.90;;;;;;4966878;28;20246;-83
2021/12/09 09:56:26;;;;;;;10.68;3.72;;;2.50;99.90;;;;;;4955358;28;20031;-88
2021/12/09 09:59:06;;;;;;;7.55;3.22;;;2.60;99.90;;;;;;4952150;28;20085;-90
2021/12/09 10:01:35;;;;;;;7.00;3.28;;;2.70;99.90;;;;;;4972378;28;20054;-83
2021/12/09 10:04:11;;;;;;;5.72;2.78;;;2.80;99.90;;;;;;4968405;28;20482;-87
2021/12/09 10:06:39;;;;;;;6.68;2.63;;;2.90;99.90;;;;;;4961224;28;20041;-85
2021/12/09 10:09:06;;;;;;;5.40;2.53;;;3.00;99.90;;;;;;4988116;28;20023;-84
2021/12/09 10:11:33;;;;;;;8.45;2.38;;;3.00;99.90;;;;;;4973792;28;20035;-83
2021/12/09 10:14:25;;;;;;;6.57;1.70;;;3.00;99.90;;;;;;4954612;28;20033;-82
2021/12/09 10:17:19;;;;;;;9.55;1.80;;;3.10;99.90;;;;;;4953252;28;20028;-84
2021/12/09 10:19:50;;;;;;;4.97;1.55;;;3.10;99.90;;;;;;4965315;28;20031;-83
2021/12/09 10:22:22;;;;;;;10.40;1.77;;;3.20;99.90;;;;;;4949324;28;20035;-85
2021/12/09 10:24:51;;;;;;;5.32;1.50;;;3.20;99.90;;;;;;4949204;28;20054;-84
2021/12/09 10:27:28;;;;;;;6.72;2.50;;;3.20;99.90;;;;;;4941441;28;20414;-84
2021/12/09 10:29:59;;;;;;;7.43;2.45;;;3.20;99.90;;;;;;4974065;23;20039;-85
2021/12/09 10:32:31;;;;;;;7.95;2.28;;;3.20;99.90;;;;;;4954195;28;20034;-84
2021/12/09 10:35:09;;;;;;;5.90;2.42;;;3.30;99.90;;;;;;4975674;28;20090;-87
2021/12/09 10:37:37;;;;;;;11.70;3.13;;;3.30;99.90;;;;;;4972283;28;20035;-88
2021/12/09 10:40:08;;;;;;;8.45;3.70;;;3.30;99.90;;;;;;4963248;28;20393;-84
2021/12/09 10:42:40;;;;;;;7.13;2.28;;;3.20;99.90;;;;;;4945507;28;20072;-84
2021/12/09 10:45:17;;;;;;;5.45;2.50;;;3.30;99.90;;;;;;4947508;28;20087;-84
2021/12/09 10:53:06;;;;;;;9.68;3.50;;;3.30;99.90;;;;;;4961979;28;20055;-85
2021/12/09 10:55:36;;;;;;;5.90;2.10;;;3.40;99.90;;;;;;4955401;28;20047;-84
2021/12/09 10:58:08;;;;;;;6.72;3.00;;;3.50;99.90;;;;;;4967652;28;20074;-86
2021/12/09 11:00:44;;;;;;;8.75;2.33;;;3.50;99.90;;;;;;4967813;28;20031;-84
2021/12/09 11:03:18;;;;;;;5.57;2.80;;;3.60;99.90;;;;;;4951048;29;20039;-83
2021/12/09 11:06:04;;;;;;;7.70;3.42;;;3.50;99.90;;;;;;4948822;29;20118;-85
2021/12/09 11:08:31;;;;;;;6.85;3.25;;;3.60;99.90;;;;;;4950452;29;20035;-85
2021/12/09 11:11:02;;;;;;;8.43;3.60;;;3.50;99.90;;;;;;4966464;29;20031;-84
2021/12/09 11:13:36;;;;;;;10.48;5.03;;;3.50;99.90;;;;;;4966272;29;20039;-85
2021/12/09 11:16:05;;;;;;;10.43;4.40;;;3.50;99.90;;;;;;4966790;29;20098;-84
2021/12/09 11:18:44;;;;;;;9.88;3.83;;;3.50;99.90;;;;;;4950219;29;20035;-84
2021/12/09 11:21:15;;;;;;;8.07;3.85;;;3.50;99.90;;;;;;4950658;29;20062;-85
2021/12/09 11:23:45;;;;;;;13.45;3.75;;;3.60;99.90;;;;;;4950852;29;20043;-85
2021/12/09 11:26:39;;;;;;;10.45;5.43;;;3.60;99.90;;;;;;4951303;29;20043;-84
2021/12/09 11:29:25;;;;;;;12.20;4.65;;;3.60;99.90;;;;;;4951122;29;20031;-85
2021/12/09 11:32:12;;;;;;;11.45;4.55;;;3.60;99.90;;;;;;4960100;29;20051;-84
2021/12/09 11:34:51;;;;;;;7.82;2.92;;;3.60;99.90;;;;;;4951224;29;20078;-85
2021/12/09 11:38:18;;;;;;;10.43;3.90;;;3.70;99.90;;;;;;4950747;29;20035;-84
2021/12/09 11:40:06;;;;;;;9.70;4.53;;;3.70;99.90;;;;;;4950385;29;20047;-86
2021/12/09 11:42:40;;;;;;;7.05;3.15;;;3.70;99.90;;;;;;4950883;29;20019;-84
2021/12/09 11:45:08;;;;;;;9.88;3.78;;;3.80;99.90;;;;;;4950987;29;20038;-84
2021/12/09 11:47:42;;;;;;;12.93;5.35;;;3.80;99.90;;;;;;4950637;29;20031;-86
2021/12/09 11:50:15;;;;;;;8.27;3.67;;;3.80;99.90;;;;;;4950924;29;20031;-84
2021/12/09 11:52:43;;;;;;;5.32;2.72;;;3.80;99.90;;;;;;4950501;29;20083;-84
2021/12/09 11:55:13;;;;;;;9.98;4.85;;;3.90;99.90;;;;;;4950770;29;20031;-85
2021/12/09 11:57:42;;;;;;;7.05;3.70;;;3.80;99.90;;;;;;4950310;29;20075;-85
2021/12/09 12:07:04;;;;;;;8.27;4.10;;;4.00;99.90;;;;;;4947804;28;20082;-84
2021/12/09 12:15:38;;;;;;;11.50;5.53;;;4.00;99.90;;;;;;4966188;29;20034;-85
2021/12/09 12:18:25;;;;;;;9.90;4.78;;;4.00;99.90;;;;;;4950533;28;20043;-85
2021/12/09 12:21:10;;;;;;;10.50;5.93;;;4.00;99.90;;;;;;4951837;28;20042;-85
2021/12/09 12:26:45;;;;;;;11.10;6.32;;;4.10;99.90;;;;;;4967378;28;20616;-85
2021/12/09 12:33:07;;;;;;;9.45;5.20;;;4.10;99.90;;;;;;4969549;28;20054;-84
2021/12/09 12:40:34;;;;;;;9.52;5.03;;;4.10;99.90;;;;;;4969196;28;20031;-83
2021/12/09 12:43:08;;;;;;;7.57;4.68;;;4.20;99.90;;;;;;4967919;28;20045;-84
2021/12/09 12:51:27;;;;;;;7.13;3.97;;;4.10;99.90;;;;;;4969139;28;20169;-84
2021/12/09 12:53:58;;;;;;;7.38;3.85;;;4.10;99.90;;;;;;4969401;28;20395;-84
2021/12/09 12:56:30;;;;;;;8.27;4.28;;;4.20;99.90;;;;;;4968894;28;20074;-83
2021/12/09 12:59:10;;;;;;;8.30;3.90;;;4.20;99.90;;;;;;4955039;28;20051;-84
2021/12/09 13:01:41;;;;;;;8.25;2.85;;;4.20;99.90;;;;;;4952538;28;20027;-85
2021/12/09 13:13:37;;;;;;;6.50;3.63;;;4.10;99.90;;;;;;4941819;28;20035;-89
2021/12/09 13:21:33;;;;;;;7.35;4.57;;;4.20;99.90;;;;;;4971483;28;20098;-88
2021/12/09 13:24:18;;;;;;;6.20;3.80;;;4.20;99.90;;;;;;4972662;28;20035;-85
2021/12/09 13:35:31;;;;;;;5.90;4.15;;;4.30;99.90;;;;;;4972689;28;20058;-92
2021/12/09 13:38:39;;;;;;;6.38;3.60;;;4.30;99.90;;;;;;4956095;28;20043;-87
2021/12/09 13:49:24;;;;;;;5.63;3.90;;;4.30;99.90;;;;;;4972362;28;20041;-87
2021/12/09 13:57:09;;;;;;;6.03;3.88;;;4.20;99.90;;;;;;4970796;28;20042;-88
2021/12/09 13:59:36;;;;;;;4.72;3.67;;;4.20;99.90;;;;;;4954147;28;20043;-83
2021/12/09 14:02:14;;;;;;;4.53;2.88;;;4.20;99.90;;;;;;4969974;28;20098;-86
2021/12/09 14:04:40;;;;;;;6.07;4.15;;;4.20;99.90;;;;;;4953599;28;20038;-84
2021/12/09 14:07:19;;;;;;;7.97;4.15;;;4.20;99.90;;;;;;4960062;28;20059;-84
2021/12/09 14:10:12;;;;;;;7.53;3.88;;;4.20;99.90;;;;;;4952895;28;20037;-84
2021/12/09 14:12:46;;;;;;;6.65;3.72;;;4.20;99.90;;;;;;4968402;28;20035;-83
2021/12/09 14:15:18;;;;;;;5.32;3.47;;;4.20;99.90;;;;;;4969461;28;20027;-84
2021/12/09 14:17:57;;;;;;;7.28;3.80;;;4.10;99.90;;;;;;4953199;28;20050;-84
2021/12/09 14:20:23;;;;;;;5.60;3.50;;;4.10;99.90;;;;;;4954004;28;20057;-83
2021/12/09 14:22:50;;;;;;;8.07;3.20;;;4.10;99.90;;;;;;4969468;28;20023;-83
2021/12/09 14:25:23;;;;;;;6.65;4.15;;;4.10;99.90;;;;;;4969072;28;20030;-84
2021/12/09 14:27:51;;;;;;;7.32;3.45;;;4.10;99.90;;;;;;4968926;28;20070;-84